sensor_id;sensor_type;location;lat;lon;timestamp;temperature;humidity
7842;DHT22;3966;51.052;13.820;2023-07-02T00:00:09;19.10;99.90
7842;DHT22;3966;51.052;13.820;2023-07-02T00:02:38;19.10;99.90
7842;DHT22;3966;51.052;13.820;2023-07-02T00:05:04;19.20;99.90
7842;DHT22;3966;51.052;13.820;2023-07-02T00:07:30;19.20;99.90
7842;DHT22;3966;51.052;13.820;2023-07-02T00:09:56;19.20;99.90
7842;DHT22;3966;51.052;13.820;2023-07-02T00:12:22;19.20;99.90
7842;DHT22;3966;51.052;13.820;2023-07-02T00:14:47;19.20;99.90
7842;DHT22;3966;51.052;13.820;2023-07-02T00:17:13;19.20;99.90
7842;DHT22;3966;51.052;13.820;2023-07-02T00:19:39;19.20;99.90
7842;DHT22;3966;51.052;13.820;2023-07-02T00:22:07;19.30;99.90
7842;DHT22;3966;51.052;13.820;2023-07-02T00:24:33;19.30;99.90
7842;DHT22;3966;51.052;13.820;2023-07-02T00:26:59;19.20;99.90
7842;DHT22;3966;51.052;13.820;2023-07-02T00:29:25;19.20;99.90
7842;DHT22;3966;51.052;13.820;2023-07-02T00:31:51;19.20;99.90
7842;DHT22;3966;51.052;13.820;2023-07-02T00:34:17;19.20;99.90
7842;DHT22;3966;51.052;13.820;2023-07-02T00:36:43;19.20;99.90
7842;DHT22;3966;51.052;13.820;2023-07-02T00:39:08;19.30;99.90
7842;DHT22;3966;51.052;13.820;2023-07-02T00:41:34;19.20;99.90
7842;DHT22;3966;51.052;13.820;2023-07-02T00:44:00;19.20;99.90
7842;DHT22;3966;51.052;13.820;2023-07-02T00:46:26;19.20;99.90
7842;DHT22;3966;51.052;13.820;2023-07-02T00:48:55;19.20;99.90
7842;DHT22;3966;51.052;13.820;2023-07-02T00:51:23;19.20;99.90
7842;DHT22;3966;51.052;13.820;2023-07-02T00:53:50;19.20;99.90
7842;DHT22;3966;51.052;13.820;2023-07-02T00:56:17;19.20;99.90
7842;DHT22;3966;51.052;13.820;2023-07-02T00:58:47;19.20;99.90
7842;DHT22;3966;51.052;13.820;2023-07-02T01:01:21;19.20;99.90
7842;DHT22;3966;51.052;13.820;2023-07-02T01:04:06;19.10;99.90
7842;DHT22;3966;51.052;13.820;2023-07-02T01:06:35;19.20;99.90
7842;DHT22;3966;51.052;13.820;2023-07-02T01:09:02;19.20;99.90
7842;DHT22;3966;51.052;13.820;2023-07-02T01:11:35;19.20;99.90
7842;DHT22;3966;51.052;13.820;2023-07-02T01:14:12;19.20;99.90
7842;DHT22;3966;51.052;13.820;2023-07-02T01:16:42;19.20;99.90
7842;DHT22;3966;51.052;13.820;2023-07-02T01:21:58;19.20;99.90
7842;DHT22;3966;51.052;13.820;2023-07-02T01:24:24;19.30;99.90
7842;DHT22;3966;51.052;13.820;2023-07-02T01:26:49;19.20;99.90
7842;DHT22;3966;51.052;13.820;2023-07-02T01:29:20;19.20;99.90
7842;DHT22;3966;51.052;13.820;2023-07-02T01:31:47;19.20;99.90
7842;DHT22;3966;51.052;13.820;2023-07-02T01:34:13;19.10;99.90
7842;DHT22;3966;51.052;13.820;2023-07-02T01:36:39;19.10;99.90
7842;DHT22;3966;51.052;13.820;2023-07-02T01:39:05;19.10;99.90
7842;DHT22;3966;51.052;13.820;2023-07-02T01:41:51;19.20;99.90
7842;DHT22;3966;51.052;13.820;2023-07-02T01:44:17;19.20;99.90
7842;DHT22;3966;51.052;13.820;2023-07-02T01:46:47;19.20;99.90
7842;DHT22;3966;51.052;13.820;2023-07-02T01:49:16;19.10;99.90
7842;DHT22;3966;51.052;13.820;2023-07-02T01:51:45;19.00;99.90
7842;DHT22;3966;51.052;13.820;2023-07-02T01:54:14;19.10;99.90
7842;DHT22;3966;51.052;13.820;2023-07-02T01:56:39;19.10;99.90
7842;DHT22;3966;51.052;13.820;2023-07-02T01:59:05;19.10;99.90
7842;DHT22;3966;51.052;13.820;2023-07-02T02:01:30;19.10;99.90
7842;DHT22;3966;51.052;13.820;2023-07-02T02:03:58;19.10;99.90
7842;DHT22;3966;51.052;13.820;2023-07-02T02:06:24;19.10;99.90
7842;DHT22;3966;51.052;13.820;2023-07-02T02:08:49;19.10;99.90
7842;DHT22;3966;51.052;13.820;2023-07-02T02:11:15;19.10;99.90
7842;DHT22;3966;51.052;13.820;2023-07-02T02:13:41;19.10;99.90
7842;DHT22;3966;51.052;13.820;2023-07-02T02:16:06;19.00;99.90
7842;DHT22;3966;51.052;13.820;2023-07-02T02:18:32;19.00;99.90
7842;DHT22;3966;51.052;13.820;2023-07-02T02:20:58;18.90;99.90
7842;DHT22;3966;51.052;13.820;2023-07-02T02:23:23;18.90;99.90
7842;DHT22;3966;51.052;13.820;2023-07-02T02:25:49;19.00;99.90
7842;DHT22;3966;51.052;13.820;2023-07-02T02:28:20;19.00;99.90
7842;DHT22;3966;51.052;13.820;2023-07-02T02:30:46;19.00;99.90
7842;DHT22;3966;51.052;13.820;2023-07-02T02:33:12;18.90;99.90
7842;DHT22;3966;51.052;13.820;2023-07-02T02:35:37;18.80;99.90
7842;DHT22;3966;51.052;13.820;2023-07-02T02:38:04;18.80;99.90
7842;DHT22;3966;51.052;13.820;2023-07-02T02:40:30;18.70;99.90
7842;DHT22;3966;51.052;13.820;2023-07-02T02:42:56;18.60;99.90
7842;DHT22;3966;51.052;13.820;2023-07-02T02:45:21;18.60;99.90
7842;DHT22;3966;51.052;13.820;2023-07-02T02:47:47;18.60;99.90
7842;DHT22;3966;51.052;13.820;2023-07-02T02:50:13;18.70;99.90
7842;DHT22;3966;51.052;13.820;2023-07-02T02:52:39;18.70;99.90
7842;DHT22;3966;51.052;13.820;2023-07-02T02:55:06;18.70;99.90
7842;DHT22;3966;51.052;13.820;2023-07-02T02:57:33;18.70;99.90
7842;DHT22;3966;51.052;13.820;2023-07-02T02:59:59;18.60;99.90
7842;DHT22;3966;51.052;13.820;2023-07-02T03:02:25;18.50;99.90
7842;DHT22;3966;51.052;13.820;2023-07-02T03:04:50;18.50;99.90
7842;DHT22;3966;51.052;13.820;2023-07-02T03:07:16;18.60;99.90
7842;DHT22;3966;51.052;13.820;2023-07-02T03:09:42;18.60;99.90
7842;DHT22;3966;51.052;13.820;2023-07-02T03:12:08;18.70;99.90
7842;DHT22;3966;51.052;13.820;2023-07-02T03:14:34;18.70;99.90
7842;DHT22;3966;51.052;13.820;2023-07-02T03:17:00;18.80;99.90
7842;DHT22;3966;51.052;13.820;2023-07-02T03:19:26;18.80;99.90
7842;DHT22;3966;51.052;13.820;2023-07-02T03:21:51;18.70;99.90
7842;DHT22;3966;51.052;13.820;2023-07-02T03:24:17;18.70;99.90
7842;DHT22;3966;51.052;13.820;2023-07-02T03:26:43;18.60;99.90
7842;DHT22;3966;51.052;13.820;2023-07-02T03:29:09;18.50;99.90
7842;DHT22;3966;51.052;13.820;2023-07-02T03:31:35;18.60;99.90
7842;DHT22;3966;51.052;13.820;2023-07-02T03:34:07;18.60;99.90
7842;DHT22;3966;51.052;13.820;2023-07-02T03:36:33;18.60;99.90
7842;DHT22;3966;51.052;13.820;2023-07-02T03:38:58;18.70;99.90
7842;DHT22;3966;51.052;13.820;2023-07-02T03:41:24;18.70;99.90
7842;DHT22;3966;51.052;13.820;2023-07-02T03:43:50;18.70;99.90
7842;DHT22;3966;51.052;13.820;2023-07-02T03:46:16;18.70;99.90
7842;DHT22;3966;51.052;13.820;2023-07-02T03:48:41;18.80;99.90
7842;DHT22;3966;51.052;13.820;2023-07-02T03:51:07;18.80;99.90
7842;DHT22;3966;51.052;13.820;2023-07-02T03:53:33;18.80;99.90
7842;DHT22;3966;51.052;13.820;2023-07-02T03:55:58;18.80;99.90
7842;DHT22;3966;51.052;13.820;2023-07-02T03:58:24;18.70;99.90
7842;DHT22;3966;51.052;13.820;2023-07-02T04:00:50;18.60;99.90
7842;DHT22;3966;51.052;13.820;2023-07-02T04:03:18;18.60;99.90
7842;DHT22;3966;51.052;13.820;2023-07-02T04:05:44;18.40;99.90
7842;DHT22;3966;51.052;13.820;2023-07-02T04:08:10;18.40;99.90
7842;DHT22;3966;51.052;13.820;2023-07-02T04:10:36;18.40;99.90
7842;DHT22;3966;51.052;13.820;2023-07-02T04:13:01;18.30;99.90
7842;DHT22;3966;51.052;13.820;2023-07-02T04:15:27;18.30;99.90
7842;DHT22;3966;51.052;13.820;2023-07-02T04:17:53;18.10;99.90
7842;DHT22;3966;51.052;13.820;2023-07-02T04:20:19;18.10;99.90
7842;DHT22;3966;51.052;13.820;2023-07-02T04:22:46;18.10;99.90
7842;DHT22;3966;51.052;13.820;2023-07-02T04:25:13;18.00;99.90
7842;DHT22;3966;51.052;13.820;2023-07-02T04:27:43;17.90;99.90
7842;DHT22;3966;51.052;13.820;2023-07-02T04:30:12;17.90;99.90
7842;DHT22;3966;51.052;13.820;2023-07-02T04:32:39;17.80;99.90
7842;DHT22;3966;51.052;13.820;2023-07-02T04:35:05;17.60;99.90
7842;DHT22;3966;51.052;13.820;2023-07-02T04:37:31;17.60;99.90
7842;DHT22;3966;51.052;13.820;2023-07-02T04:39:57;17.60;99.90
7842;DHT22;3966;51.052;13.820;2023-07-02T04:42:23;17.50;99.90
7842;DHT22;3966;51.052;13.820;2023-07-02T04:44:53;17.50;99.90
7842;DHT22;3966;51.052;13.820;2023-07-02T04:47:19;17.50;99.90
7842;DHT22;3966;51.052;13.820;2023-07-02T04:49:45;17.50;99.90
7842;DHT22;3966;51.052;13.820;2023-07-02T04:52:11;17.40;99.90
7842;DHT22;3966;51.052;13.820;2023-07-02T04:54:37;17.40;99.90
7842;DHT22;3966;51.052;13.820;2023-07-02T04:57:03;17.40;99.90
7842;DHT22;3966;51.052;13.820;2023-07-02T04:59:28;17.40;99.90
7842;DHT22;3966;51.052;13.820;2023-07-02T05:01:54;17.50;99.90
7842;DHT22;3966;51.052;13.820;2023-07-02T05:04:20;17.50;99.90
7842;DHT22;3966;51.052;13.820;2023-07-02T05:06:45;17.50;99.90
7842;DHT22;3966;51.052;13.820;2023-07-02T05:09:11;17.50;99.90
7842;DHT22;3966;51.052;13.820;2023-07-02T05:11:36;17.50;99.90
7842;DHT22;3966;51.052;13.820;2023-07-02T05:14:02;17.30;99.90
7842;DHT22;3966;51.052;13.820;2023-07-02T05:16:28;17.20;99.90
7842;DHT22;3966;51.052;13.820;2023-07-02T05:18:54;17.20;99.90
7842;DHT22;3966;51.052;13.820;2023-07-02T05:21:20;17.20;99.90
7842;DHT22;3966;51.052;13.820;2023-07-02T05:23:45;17.20;99.90
7842;DHT22;3966;51.052;13.820;2023-07-02T05:26:11;17.10;99.90
7842;DHT22;3966;51.052;13.820;2023-07-02T05:28:37;17.20;99.90
7842;DHT22;3966;51.052;13.820;2023-07-02T05:31:02;17.20;99.90
7842;DHT22;3966;51.052;13.820;2023-07-02T05:33:28;17.30;99.90
7842;DHT22;3966;51.052;13.820;2023-07-02T05:35:53;17.30;99.90
7842;DHT22;3966;51.052;13.820;2023-07-02T05:38:19;17.40;99.90
7842;DHT22;3966;51.052;13.820;2023-07-02T05:40:45;17.50;99.90
7842;DHT22;3966;51.052;13.820;2023-07-02T05:43:11;17.60;99.90
7842;DHT22;3966;51.052;13.820;2023-07-02T05:45:37;17.60;99.90
7842;DHT22;3966;51.052;13.820;2023-07-02T05:48:03;17.60;99.90
7842;DHT22;3966;51.052;13.820;2023-07-02T05:50:29;17.70;99.90
7842;DHT22;3966;51.052;13.820;2023-07-02T05:52:54;17.80;99.90
7842;DHT22;3966;51.052;13.820;2023-07-02T05:55:20;17.90;99.90
7842;DHT22;3966;51.052;13.820;2023-07-02T05:57:46;17.90;99.90
7842;DHT22;3966;51.052;13.820;2023-07-02T06:00:12;18.00;99.90
7842;DHT22;3966;51.052;13.820;2023-07-02T06:02:38;17.90;99.90
7842;DHT22;3966;51.052;13.820;2023-07-02T06:05:04;17.90;99.90
7842;DHT22;3966;51.052;13.820;2023-07-02T06:07:29;17.90;99.90
7842;DHT22;3966;51.052;13.820;2023-07-02T06:09:55;18.00;99.90
7842;DHT22;3966;51.052;13.820;2023-07-02T06:12:21;18.00;99.90
7842;DHT22;3966;51.052;13.820;2023-07-02T06:14:48;18.00;99.90
7842;DHT22;3966;51.052;13.820;2023-07-02T06:17:13;17.90;99.90
7842;DHT22;3966;51.052;13.820;2023-07-02T06:19:39;17.90;99.90
7842;DHT22;3966;51.052;13.820;2023-07-02T06:22:05;18.10;99.90
7842;DHT22;3966;51.052;13.820;2023-07-02T06:24:31;18.10;99.90
7842;DHT22;3966;51.052;13.820;2023-07-02T06:26:56;18.10;99.90
7842;DHT22;3966;51.052;13.820;2023-07-02T06:29:23;18.10;99.90
7842;DHT22;3966;51.052;13.820;2023-07-02T06:31:49;18.20;99.90
7842;DHT22;3966;51.052;13.820;2023-07-02T06:34:15;18.30;99.90
7842;DHT22;3966;51.052;13.820;2023-07-02T06:36:41;18.40;99.90
7842;DHT22;3966;51.052;13.820;2023-07-02T06:39:07;18.20;99.90
7842;DHT22;3966;51.052;13.820;2023-07-02T06:41:35;18.30;99.90
7842;DHT22;3966;51.052;13.820;2023-07-02T06:44:00;18.20;99.90
7842;DHT22;3966;51.052;13.820;2023-07-02T06:46:26;18.20;99.90
7842;DHT22;3966;51.052;13.820;2023-07-02T06:48:52;18.20;99.90
7842;DHT22;3966;51.052;13.820;2023-07-02T06:51:17;18.40;99.90
7842;DHT22;3966;51.052;13.820;2023-07-02T06:53:45;18.60;99.90
7842;DHT22;3966;51.052;13.820;2023-07-02T06:56:11;18.60;99.90
7842;DHT22;3966;51.052;13.820;2023-07-02T06:58:37;18.70;99.90
7842;DHT22;3966;51.052;13.820;2023-07-02T07:01:02;18.70;99.90
7842;DHT22;3966;51.052;13.820;2023-07-02T07:03:28;18.40;99.90
7842;DHT22;3966;51.052;13.820;2023-07-02T07:05:54;18.60;99.90
7842;DHT22;3966;51.052;13.820;2023-07-02T07:08:19;18.80;99.90
7842;DHT22;3966;51.052;13.820;2023-07-02T07:10:45;19.00;99.90
7842;DHT22;3966;51.052;13.820;2023-07-02T07:13:11;18.70;99.90
7842;DHT22;3966;51.052;13.820;2023-07-02T07:15:37;18.80;99.90
7842;DHT22;3966;51.052;13.820;2023-07-02T07:18:03;18.80;99.90
7842;DHT22;3966;51.052;13.820;2023-07-02T07:20:30;18.90;99.90
7842;DHT22;3966;51.052;13.820;2023-07-02T07:22:56;19.20;99.90
7842;DHT22;3966;51.052;13.820;2023-07-02T07:25:22;19.30;99.90
7842;DHT22;3966;51.052;13.820;2023-07-02T07:27:48;19.40;99.90
7842;DHT22;3966;51.052;13.820;2023-07-02T07:30:14;19.30;99.90
7842;DHT22;3966;51.052;13.820;2023-07-02T07:32:41;19.20;99.90
7842;DHT22;3966;51.052;13.820;2023-07-02T07:35:07;19.10;99.90
7842;DHT22;3966;51.052;13.820;2023-07-02T07:37:33;19.20;99.90
7842;DHT22;3966;51.052;13.820;2023-07-02T07:39:58;19.30;99.90
7842;DHT22;3966;51.052;13.820;2023-07-02T07:42:24;19.50;99.90
7842;DHT22;3966;51.052;13.820;2023-07-02T07:44:50;19.40;99.90
7842;DHT22;3966;51.052;13.820;2023-07-02T07:47:15;19.50;99.90
7842;DHT22;3966;51.052;13.820;2023-07-02T07:49:41;19.60;99.90
7842;DHT22;3966;51.052;13.820;2023-07-02T07:52:07;19.40;99.90
7842;DHT22;3966;51.052;13.820;2023-07-02T07:54:33;19.40;99.90
7842;DHT22;3966;51.052;13.820;2023-07-02T07:57:02;19.40;99.90
7842;DHT22;3966;51.052;13.820;2023-07-02T07:59:27;19.50;99.90
7842;DHT22;3966;51.052;13.820;2023-07-02T08:01:53;19.80;99.90
7842;DHT22;3966;51.052;13.820;2023-07-02T08:04:18;20.00;99.90
7842;DHT22;3966;51.052;13.820;2023-07-02T08:06:44;19.80;99.90
7842;DHT22;3966;51.052;13.820;2023-07-02T08:09:10;19.60;99.90
7842;DHT22;3966;51.052;13.820;2023-07-02T08:11:36;19.70;99.90
7842;DHT22;3966;51.052;13.820;2023-07-02T08:14:02;19.80;99.90
7842;DHT22;3966;51.052;13.820;2023-07-02T08:16:27;19.80;99.90
7842;DHT22;3966;51.052;13.820;2023-07-02T08:18:53;20.10;99.90
7842;DHT22;3966;51.052;13.820;2023-07-02T08:21:19;20.10;99.90
7842;DHT22;3966;51.052;13.820;2023-07-02T08:23:45;20.00;99.90
7842;DHT22;3966;51.052;13.820;2023-07-02T08:26:10;20.10;99.90
7842;DHT22;3966;51.052;13.820;2023-07-02T08:28:37;20.30;99.90
7842;DHT22;3966;51.052;13.820;2023-07-02T08:31:04;20.30;99.90
7842;DHT22;3966;51.052;13.820;2023-07-02T08:33:29;20.20;99.90
7842;DHT22;3966;51.052;13.820;2023-07-02T08:35:55;20.10;99.90
7842;DHT22;3966;51.052;13.820;2023-07-02T08:38:23;20.30;99.90
7842;DHT22;3966;51.052;13.820;2023-07-02T08:40:51;20.50;99.90
7842;DHT22;3966;51.052;13.820;2023-07-02T08:43:17;20.60;99.90
7842;DHT22;3966;51.052;13.820;2023-07-02T08:45:43;20.80;99.90
7842;DHT22;3966;51.052;13.820;2023-07-02T08:48:10;20.80;99.90
7842;DHT22;3966;51.052;13.820;2023-07-02T08:50:36;20.70;99.90
7842;DHT22;3966;51.052;13.820;2023-07-02T08:53:02;20.60;99.90
7842;DHT22;3966;51.052;13.820;2023-07-02T08:55:28;20.50;99.90
7842;DHT22;3966;51.052;13.820;2023-07-02T08:57:56;20.40;99.90
7842;DHT22;3966;51.052;13.820;2023-07-02T09:00:26;20.30;99.90
7842;DHT22;3966;51.052;13.820;2023-07-02T09:02:52;20.30;99.90
7842;DHT22;3966;51.052;13.820;2023-07-02T09:05:17;20.40;99.90
7842;DHT22;3966;51.052;13.820;2023-07-02T09:07:48;20.60;99.90
7842;DHT22;3966;51.052;13.820;2023-07-02T09:10:31;20.70;99.90
7842;DHT22;3966;51.052;13.820;2023-07-02T09:13:06;20.90;99.90
7842;DHT22;3966;51.052;13.820;2023-07-02T09:15:36;21.00;99.90
7842;DHT22;3966;51.052;13.820;2023-07-02T09:18:02;21.00;99.90
7842;DHT22;3966;51.052;13.820;2023-07-02T09:20:34;21.10;99.90
7842;DHT22;3966;51.052;13.820;2023-07-02T09:23:00;21.30;99.90
7842;DHT22;3966;51.052;13.820;2023-07-02T09:25:38;21.40;99.90
7842;DHT22;3966;51.052;13.820;2023-07-02T09:28:19;21.60;99.90
7842;DHT22;3966;51.052;13.820;2023-07-02T09:30:56;21.50;99.90
7842;DHT22;3966;51.052;13.820;2023-07-02T09:33:27;21.60;99.90
7842;DHT22;3966;51.052;13.820;2023-07-02T09:35:53;21.60;99.90
7842;DHT22;3966;51.052;13.820;2023-07-02T09:38:20;21.70;99.90
7842;DHT22;3966;51.052;13.820;2023-07-02T09:40:47;21.50;99.90
7842;DHT22;3966;51.052;13.820;2023-07-02T09:43:18;21.40;99.90
7842;DHT22;3966;51.052;13.820;2023-07-02T09:45:46;21.80;99.90
7842;DHT22;3966;51.052;13.820;2023-07-02T09:48:16;22.00;99.90
7842;DHT22;3966;51.052;13.820;2023-07-02T09:50:43;21.70;99.90
7842;DHT22;3966;51.052;13.820;2023-07-02T09:53:10;21.60;99.90
7842;DHT22;3966;51.052;13.820;2023-07-02T09:55:37;21.70;99.90
7842;DHT22;3966;51.052;13.820;2023-07-02T09:58:03;22.10;99.90
7842;DHT22;3966;51.052;13.820;2023-07-02T10:00:29;21.90;99.90
7842;DHT22;3966;51.052;13.820;2023-07-02T10:02:54;21.60;99.90
7842;DHT22;3966;51.052;13.820;2023-07-02T10:05:30;21.60;99.90
7842;DHT22;3966;51.052;13.820;2023-07-02T10:07:57;21.70;99.90
7842;DHT22;3966;51.052;13.820;2023-07-02T10:10:30;21.90;99.90
7842;DHT22;3966;51.052;13.820;2023-07-02T10:12:56;22.00;99.90
7842;DHT22;3966;51.052;13.820;2023-07-02T10:15:27;21.80;99.90
7842;DHT22;3966;51.052;13.820;2023-07-02T10:18:02;21.80;99.90
7842;DHT22;3966;51.052;13.820;2023-07-02T10:20:36;22.00;99.90
7842;DHT22;3966;51.052;13.820;2023-07-02T10:23:03;22.30;99.90
7842;DHT22;3966;51.052;13.820;2023-07-02T10:25:37;22.60;99.90
7842;DHT22;3966;51.052;13.820;2023-07-02T10:28:18;22.70;99.90
7842;DHT22;3966;51.052;13.820;2023-07-02T10:30:45;22.50;99.90
7842;DHT22;3966;51.052;13.820;2023-07-02T10:33:11;22.50;99.90
7842;DHT22;3966;51.052;13.820;2023-07-02T10:35:38;22.40;99.90
7842;DHT22;3966;51.052;13.820;2023-07-02T10:38:04;22.60;99.90
7842;DHT22;3966;51.052;13.820;2023-07-02T10:40:32;22.50;99.90
7842;DHT22;3966;51.052;13.820;2023-07-02T10:43:01;22.20;99.90
7842;DHT22;3966;51.052;13.820;2023-07-02T10:45:34;22.20;99.90
7842;DHT22;3966;51.052;13.820;2023-07-02T10:48:02;22.30;99.90
7842;DHT22;3966;51.052;13.820;2023-07-02T10:50:27;22.50;99.90
7842;DHT22;3966;51.052;13.820;2023-07-02T10:52:53;22.50;99.90
7842;DHT22;3966;51.052;13.820;2023-07-02T10:55:21;22.50;99.90
7842;DHT22;3966;51.052;13.820;2023-07-02T10:57:52;22.30;99.90
7842;DHT22;3966;51.052;13.820;2023-07-02T11:00:27;22.40;99.90
7842;DHT22;3966;51.052;13.820;2023-07-02T11:02:53;22.50;99.90
7842;DHT22;3966;51.052;13.820;2023-07-02T11:05:18;22.70;99.90
7842;DHT22;3966;51.052;13.820;2023-07-02T11:07:44;22.80;99.90
7842;DHT22;3966;51.052;13.820;2023-07-02T11:10:18;23.00;99.70
7842;DHT22;3966;51.052;13.820;2023-07-02T11:12:44;22.70;99.90
7842;DHT22;3966;51.052;13.820;2023-07-02T11:15:12;22.70;99.90
7842;DHT22;3966;51.052;13.820;2023-07-02T11:17:38;22.80;99.90
7842;DHT22;3966;51.052;13.820;2023-07-02T11:20:10;23.10;99.90
7842;DHT22;3966;51.052;13.820;2023-07-02T11:22:37;23.20;97.00
7842;DHT22;3966;51.052;13.820;2023-07-02T11:27:38;22.80;96.80
7842;DHT22;3966;51.052;13.820;2023-07-02T11:30:05;22.90;97.00
7842;DHT22;3966;51.052;13.820;2023-07-02T11:32:30;23.00;97.00
7842;DHT22;3966;51.052;13.820;2023-07-02T11:34:56;23.10;95.80
7842;DHT22;3966;51.052;13.820;2023-07-02T11:37:22;23.30;97.10
7842;DHT22;3966;51.052;13.820;2023-07-02T11:39:48;23.50;97.00
7842;DHT22;3966;51.052;13.820;2023-07-02T11:42:14;23.40;93.10
7842;DHT22;3966;51.052;13.820;2023-07-02T11:44:40;23.40;94.40
7842;DHT22;3966;51.052;13.820;2023-07-02T11:47:06;23.60;95.50
7842;DHT22;3966;51.052;13.820;2023-07-02T11:49:32;23.90;95.90
7842;DHT22;3966;51.052;13.820;2023-07-02T11:51:57;23.90;91.70
7842;DHT22;3966;51.052;13.820;2023-07-02T11:54:23;23.80;94.10
7842;DHT22;3966;51.052;13.820;2023-07-02T11:56:49;23.70;95.30
7842;DHT22;3966;51.052;13.820;2023-07-02T11:59:14;23.40;95.40
7842;DHT22;3966;51.052;13.820;2023-07-02T12:01:40;23.10;97.10
7842;DHT22;3966;51.052;13.820;2023-07-02T12:04:06;23.10;99.60
7842;DHT22;3966;51.052;13.820;2023-07-02T12:06:33;23.00;99.30
7842;DHT22;3966;51.052;13.820;2023-07-02T12:08:59;23.20;99.40
7842;DHT22;3966;51.052;13.820;2023-07-02T12:11:24;23.70;99.90
7842;DHT22;3966;51.052;13.820;2023-07-02T12:13:50;24.00;97.00
7842;DHT22;3966;51.052;13.820;2023-07-02T12:16:16;24.40;95.40
7842;DHT22;3966;51.052;13.820;2023-07-02T12:18:41;24.50;94.20
7842;DHT22;3966;51.052;13.820;2023-07-02T12:21:07;24.50;91.80
7842;DHT22;3966;51.052;13.820;2023-07-02T12:23:33;24.70;90.90
7842;DHT22;3966;51.052;13.820;2023-07-02T12:25:58;24.20;88.70
7842;DHT22;3966;51.052;13.820;2023-07-02T12:28:24;24.50;90.30
7842;DHT22;3966;51.052;13.820;2023-07-02T12:30:49;24.80;86.60
7842;DHT22;3966;51.052;13.820;2023-07-02T12:33:15;25.00;84.20
7842;DHT22;3966;51.052;13.820;2023-07-02T12:35:41;24.30;85.10
7842;DHT22;3966;51.052;13.820;2023-07-02T12:38:06;24.10;91.50
7842;DHT22;3966;51.052;13.820;2023-07-02T12:40:34;24.20;94.20
7842;DHT22;3966;51.052;13.820;2023-07-02T12:42:59;24.50;94.90
7842;DHT22;3966;51.052;13.820;2023-07-02T12:45:25;24.70;92.50
7842;DHT22;3966;51.052;13.820;2023-07-02T12:47:51;24.70;92.10
7842;DHT22;3966;51.052;13.820;2023-07-02T12:50:16;24.20;94.20
7842;DHT22;3966;51.052;13.820;2023-07-02T12:52:42;24.20;93.50
7842;DHT22;3966;51.052;13.820;2023-07-02T12:55:08;24.30;91.90
7842;DHT22;3966;51.052;13.820;2023-07-02T12:57:34;24.10;91.40
7842;DHT22;3966;51.052;13.820;2023-07-02T13:00:00;24.10;92.90
7842;DHT22;3966;51.052;13.820;2023-07-02T13:02:25;24.10;88.60
7842;DHT22;3966;51.052;13.820;2023-07-02T13:04:51;23.90;87.60
7842;DHT22;3966;51.052;13.820;2023-07-02T13:07:17;23.90;89.60
7842;DHT22;3966;51.052;13.820;2023-07-02T13:09:43;24.10;89.10
7842;DHT22;3966;51.052;13.820;2023-07-02T13:12:10;24.50;89.60
7842;DHT22;3966;51.052;13.820;2023-07-02T13:14:36;24.70;82.20
7842;DHT22;3966;51.052;13.820;2023-07-02T13:17:01;24.50;80.60
7842;DHT22;3966;51.052;13.820;2023-07-02T13:19:30;24.10;81.70
7842;DHT22;3966;51.052;13.820;2023-07-02T13:21:56;23.90;85.80
7842;DHT22;3966;51.052;13.820;2023-07-02T13:24:22;23.60;92.40
7842;DHT22;3966;51.052;13.820;2023-07-02T13:26:47;23.20;94.40
7842;DHT22;3966;51.052;13.820;2023-07-02T13:29:14;23.20;97.10
7842;DHT22;3966;51.052;13.820;2023-07-02T13:31:39;23.40;96.40
7842;DHT22;3966;51.052;13.820;2023-07-02T13:34:05;23.80;96.70
7842;DHT22;3966;51.052;13.820;2023-07-02T13:36:31;24.60;94.90
7842;DHT22;3966;51.052;13.820;2023-07-02T13:38:57;24.20;93.80
7842;DHT22;3966;51.052;13.820;2023-07-02T13:41:22;24.10;95.10
7842;DHT22;3966;51.052;13.820;2023-07-02T13:43:48;23.90;96.10
7842;DHT22;3966;51.052;13.820;2023-07-02T13:46:14;24.40;96.90
7842;DHT22;3966;51.052;13.820;2023-07-02T13:48:39;24.20;94.30
7842;DHT22;3966;51.052;13.820;2023-07-02T13:51:05;24.10;94.80
7842;DHT22;3966;51.052;13.820;2023-07-02T13:53:32;24.10;94.80
7842;DHT22;3966;51.052;13.820;2023-07-02T13:55:58;23.90;94.20
7842;DHT22;3966;51.052;13.820;2023-07-02T13:58:24;24.00;94.50
7842;DHT22;3966;51.052;13.820;2023-07-02T14:00:49;24.40;94.10
7842;DHT22;3966;51.052;13.820;2023-07-02T14:03:15;24.80;92.80
7842;DHT22;3966;51.052;13.820;2023-07-02T14:05:41;25.10;92.60
7842;DHT22;3966;51.052;13.820;2023-07-02T14:08:07;24.90;92.30
7842;DHT22;3966;51.052;13.820;2023-07-02T14:10:33;24.70;91.40
7842;DHT22;3966;51.052;13.820;2023-07-02T14:12:59;24.70;91.60
7842;DHT22;3966;51.052;13.820;2023-07-02T14:15:25;24.80;92.20
7842;DHT22;3966;51.052;13.820;2023-07-02T14:17:53;24.70;90.50
7842;DHT22;3966;51.052;13.820;2023-07-02T14:20:19;24.00;90.70
7842;DHT22;3966;51.052;13.820;2023-07-02T14:22:44;23.80;89.90
7842;DHT22;3966;51.052;13.820;2023-07-02T14:25:10;23.80;91.30
7842;DHT22;3966;51.052;13.820;2023-07-02T14:27:36;23.80;91.50
7842;DHT22;3966;51.052;13.820;2023-07-02T14:30:01;23.60;91.60
7842;DHT22;3966;51.052;13.820;2023-07-02T14:32:31;23.50;92.40
7842;DHT22;3966;51.052;13.820;2023-07-02T14:34:56;23.40;92.50
7842;DHT22;3966;51.052;13.820;2023-07-02T14:37:22;23.50;93.50
7842;DHT22;3966;51.052;13.820;2023-07-02T14:39:48;23.30;92.00
7842;DHT22;3966;51.052;13.820;2023-07-02T14:42:13;23.40;92.10
7842;DHT22;3966;51.052;13.820;2023-07-02T14:44:39;23.50;91.00
7842;DHT22;3966;51.052;13.820;2023-07-02T14:47:05;23.80;91.70
7842;DHT22;3966;51.052;13.820;2023-07-02T14:49:31;24.00;91.60
7842;DHT22;3966;51.052;13.820;2023-07-02T14:51:57;24.70;91.30
7842;DHT22;3966;51.052;13.820;2023-07-02T14:54:22;24.90;89.60
7842;DHT22;3966;51.052;13.820;2023-07-02T14:56:48;24.90;90.50
7842;DHT22;3966;51.052;13.820;2023-07-02T14:59:14;25.00;87.40
7842;DHT22;3966;51.052;13.820;2023-07-02T15:01:39;24.90;91.10
7842;DHT22;3966;51.052;13.820;2023-07-02T15:04:05;25.10;91.20
7842;DHT22;3966;51.052;13.820;2023-07-02T15:06:32;24.70;88.60
7842;DHT22;3966;51.052;13.820;2023-07-02T15:08:58;24.20;88.90
7842;DHT22;3966;51.052;13.820;2023-07-02T15:11:23;23.90;91.30
7842;DHT22;3966;51.052;13.820;2023-07-02T15:13:49;23.90;92.40
7842;DHT22;3966;51.052;13.820;2023-07-02T15:16:15;23.70;91.70
7842;DHT22;3966;51.052;13.820;2023-07-02T15:18:40;23.50;90.90
7842;DHT22;3966;51.052;13.820;2023-07-02T15:21:06;23.30;90.50
7842;DHT22;3966;51.052;13.820;2023-07-02T15:23:32;23.30;91.50
7842;DHT22;3966;51.052;13.820;2023-07-02T15:26:00;23.30;91.40
7842;DHT22;3966;51.052;13.820;2023-07-02T15:28:27;24.10;91.00
7842;DHT22;3966;51.052;13.820;2023-07-02T15:31:04;24.70;90.60
7842;DHT22;3966;51.052;13.820;2023-07-02T15:33:30;25.00;89.60
7842;DHT22;3966;51.052;13.820;2023-07-02T15:36:02;24.80;88.70
7842;DHT22;3966;51.052;13.820;2023-07-02T15:38:28;24.60;88.70
7842;DHT22;3966;51.052;13.820;2023-07-02T15:41:22;24.60;90.20
7842;DHT22;3966;51.052;13.820;2023-07-02T15:43:48;24.70;89.80
7842;DHT22;3966;51.052;13.820;2023-07-02T15:46:16;25.10;89.10